Time;durP1;ratioP1;P1;durP2;ratioP2;P2;SDS_P1;SDS_P2;PMS_P1;PMS_P2;Temp;Humidity;BMP_temperature;BMP_pressure;BME280_temperature;BME280_humidity;BME280_pressure;Samples;Min_cycle;Max_cycle;Signal;HPM_P1;HPM_P2
2022/09/14 00:00:45;;;;;;;6.80;4.80;;;;;;;10.95;95.71;98696.30;109033;1277;22498;-59
2022/09/14 00:03:28;;;;;;;7.60;4.90;;;;;;;10.94;95.96;98695.38;109044;1277;22439;-58
2022/09/14 00:05:55;;;;;;;8.00;4.80;;;;;;;10.96;95.87;98695.58;108862;1278;138188;-59
2022/09/14 00:08:22;;;;;;;;;;;;;;;10.98;95.78;98696.04;108978;1278;22522;-58
2022/09/14 00:10:48;;;;;;;6.00;4.70;;;;;;;10.98;96.12;98693.77;109139;1276;126004;-58
2022/09/14 00:13:15;;;;;;;;;;;;;;;10.99;95.88;98691.52;109253;1277;22581;-58
2022/09/14 00:15:45;;;;;;;7.20;5.50;;;;;;;10.98;95.89;98692.23;109284;1276;22513;-59
2022/09/14 00:18:11;;;;;;;5.40;4.40;;;;;;;10.98;95.96;98690.97;109134;1277;138653;-59
2022/09/14 00:20:38;;;;;;;;;;;;;;;10.99;96.02;98688.52;109305;1276;22625;-58
2022/09/14 00:23:05;;;;;;;8.70;4.60;;;;;;;11.01;96.12;98690.09;109119;1276;125186;-58
2022/09/14 00:25:31;;;;;;;;;;;;;;;11.02;95.90;98691.84;109280;1277;23422;-58
2022/09/14 00:27:58;;;;;;;6.10;4.40;;;;;;;11.02;95.95;98689.92;109147;1276;124914;-58
2022/09/14 00:30:25;;;;;;;8.50;4.90;;;;;;;11.03;96.09;98690.41;109313;1277;22610;-59
2022/09/14 00:32:52;;;;;;;6.20;4.50;;;;;;;11.03;95.94;98691.02;109242;1277;22449;-58
2022/09/14 00:35:18;;;;;;;6.30;4.70;;;;;;;11.04;96.04;98691.29;108962;1277;138121;-58
2022/09/14 00:37:47;;;;;;;;;;;;;;;11.05;95.85;98688.89;109296;1276;23186;-59
2022/09/14 00:40:14;;;;;;;7.40;4.70;;;;;;;11.04;95.74;98691.01;109148;1276;126008;-58
2022/09/14 00:42:41;;;;;;;12.40;4.60;;;;;;;11.05;95.95;98689.64;109249;1277;23343;-58
2022/09/14 00:45:13;;;;;;;;;;;;;;;11.06;95.90;98686.31;109265;1277;22475;-58
2022/09/14 00:47:39;;;;;;;8.70;5.00;;;;;;;11.06;95.99;98684.45;109131;1277;124845;-58
2022/09/14 00:50:06;;;;;;;6.90;5.00;;;;;;;11.07;95.82;98687.29;109197;1274;22628;-58
2022/09/14 00:52:34;;;;;;;6.10;4.70;;;;;;;11.07;95.93;98687.40;109107;1277;138872;-59
2022/09/14 00:55:06;;;;;;;6.90;4.70;;;;;;;11.08;95.85;98687.61;109283;1276;22480;-58
2022/09/14 00:57:36;;;;;;;9.60;4.80;;;;;;;11.08;95.70;98686.41;109139;1276;22465;-58
2022/09/14 01:00:05;;;;;;;9.30;6.50;;;;;;;11.09;95.77;98688.21;108980;1277;139809;-57
2022/09/14 01:02:31;;;;;;;12.50;7.10;;;;;;;11.09;95.94;98686.58;109249;1277;22485;-58
2022/09/14 01:04:58;;;;;;;;;;;;;;;11.11;95.78;98681.92;109178;1277;138389;-58
2022/09/14 01:07:31;;;;;;;7.70;6.20;;;;;;;11.11;95.73;98682.46;109277;1277;22404;-58
2022/09/14 01:10:28;;;;;;;7.40;6.20;;;;;;;11.11;95.90;98680.89;109115;1277;141105;-58
2022/09/14 01:13:25;;;;;;;9.60;7.60;;;;;;;11.10;95.83;98681.17;109226;1277;22453;-58
2022/09/14 01:16:16;;;;;;;10.10;7.60;;;;;;;11.10;95.81;98680.08;109234;1277;22399;-58
2022/09/14 01:18:54;;;;;;;10.30;7.50;;;;;;;11.12;95.91;98679.88;109241;1277;22542;-58
2022/09/14 01:21:40;;;;;;;7.10;6.40;;;;;;;11.14;95.99;98680.15;109127;1277;22424;-58
2022/09/14 01:24:15;;;;;;;10.00;6.30;;;;;;;11.15;95.88;98673.77;109061;1277;138233;-59
2022/09/14 01:26:50;;;;;;;9.70;6.40;;;;;;;11.16;95.96;98674.63;109270;1276;23424;-59
2022/09/14 01:29:19;;;;;;;5.90;5.30;;;;;;;11.14;95.61;98668.52;109131;1277;138690;-59
2022/09/14 01:31:55;;;;;;;6.40;5.20;;;;;;;11.16;96.08;98665.41;109258;1276;22560;-59
2022/09/14 01:34:48;;;;;;;6.70;5.50;;;;;;;11.15;95.78;98668.52;109113;1277;138272;-59
2022/09/14 01:37:26;;;;;;;6.10;3.90;;;;;;;11.17;95.88;98669.77;109074;1277;22484;-59
2022/09/14 01:40:05;;;;;;;6.40;4.80;;;;;;;11.18;96.00;98668.30;109004;1277;139741;-60
2022/09/14 01:42:32;;;;;;;5.70;4.20;;;;;;;11.17;95.95;98665.36;109291;1276;22590;-59
2022/09/14 01:45:00;;;;;;;6.40;4.70;;;;;;;11.16;95.88;98663.52;109219;1277;22460;-58
2022/09/14 01:47:49;;;;;;;5.80;4.90;;;;;;;11.16;95.96;98663.67;108872;1277;138159;-58
2022/09/14 01:50:20;;;;;;;6.90;5.90;;;;;;;11.16;95.93;98664.05;109243;1275;22579;-59
2022/09/14 01:52:59;;;;;;;7.00;5.80;;;;;;;11.16;95.98;98660.84;109046;1276;139000;-59
2022/09/14 01:55:30;;;;;;;8.70;6.90;;;;;;;11.16;95.87;98660.84;109266;1275;23037;-59
2022/09/14 01:58:24;;;;;;;10.50;7.20;;;;;;;11.16;95.91;98657.73;109159;1277;138394;-59
2022/09/14 02:00:52;;;;;;;8.00;7.20;;;;;;;11.16;95.92;98653.47;109304;1276;22466;-59
2022/09/14 02:03:22;;;;;;;8.10;6.70;;;;;;;11.17;95.94;98652.42;109215;1277;22450;-59
2022/09/14 02:06:10;;;;;;;8.90;7.10;;;;;;;11.18;96.10;98650.19;109057;1277;138015;-59
2022/09/14 02:08:36;;;;;;;8.20;6.80;;;;;;;11.18;96.13;98647.30;109324;1275;22481;-59
2022/09/14 02:11:03;;;;;;;8.70;7.20;;;;;;;11.19;96.09;98641.30;109128;1277;139127;-59
2022/09/14 02:13:30;;;;;;;7.50;6.40;;;;;;;11.20;96.02;98639.77;109098;1276;23256;-59
2022/09/14 02:15:57;;;;;;;7.80;7.00;;;;;;;11.21;96.02;98635.45;108938;1277;139970;-60
2022/09/14 02:18:23;;;;;;;6.50;5.70;;;;;;;11.23;95.95;98633.21;109282;1277;22457;-60
2022/09/14 02:20:50;;;;;;;;;;;;;;;11.23;96.01;98632.77;109171;1276;22500;-59
2022/09/14 02:23:17;;;;;;;5.90;4.80;;;;;;;11.23;96.02;98636.59;109133;1276;126030;-59
2022/09/14 02:25:44;;;;;;;;;;;;;;;11.23;95.82;98639.59;109232;1276;23259;-59
2022/09/14 02:28:11;;;;;;;6.20;5.60;;;;;;;11.23;95.82;98638.06;109203;1276;125526;-60
2022/09/14 02:31:09;;;;;;;6.40;5.30;;;;;;;11.23;95.99;98639.91;109231;1277;23509;-59
2022/09/14 02:33:42;;;;;;;;;;;;;;;11.23;95.72;98638.67;109296;1276;22510;-60
2022/09/14 02:36:35;;;;;;;5.30;4.70;;;;;;;11.22;95.68;98637.73;109135;1276;125310;-59
2022/09/14 02:39:08;;;;;;;6.60;5.10;;;;;;;11.21;95.84;98632.23;108963;1279;22461;-60
2022/09/14 02:41:49;;;;;;;7.80;4.20;;;;;;;11.22;95.83;98629.02;109071;1277;137979;-59
2022/09/14 02:44:47;;;;;;;7.00;4.50;;;;;;;11.21;95.54;98630.38;109291;1277;22495;-59
2022/09/14 02:47:24;;;;;;;5.90;4.30;;;;;;;11.22;95.58;98629.29;109080;1277;138497;-60
2022/09/14 02:50:10;;;;;;;4.70;4.10;;;;;;;11.21;95.52;98625.27;109192;1277;22478;-59
2022/09/14 02:53:08;;;;;;;6.80;3.70;;;;;;;11.21;95.55;98620.67;109204;1277;139239;-59
2022/09/14 02:55:39;;;;;;;5.90;4.00;;;;;;;11.20;95.42;98620.79;109047;1276;22585;-59
2022/09/14 02:58:10;;;;;;;4.50;3.70;;;;;;;11.19;95.38;98618.23;109016;1277;139930;-59
2022/09/14 03:00:47;;;;;;;6.30;3.90;;;;;;;11.19;95.35;98620.09;109267;1277;22629;-60
2022/09/14 03:03:19;;;;;;;4.80;3.90;;;;;;;11.19;95.45;98619.98;109234;1277;23622;-59
2022/09/14 03:05:46;;;;;;;5.90;4.00;;;;;;;11.19;95.46;98616.70;109007;1277;138269;-60
2022/09/14 03:08:13;;;;;;;5.30;3.70;;;;;;;11.20;95.35;98617.46;109317;1274;22493;-59
2022/09/14 03:10:43;;;;;;;;;;;;;;;11.21;95.49;98618.99;109123;1277;139458;-59
2022/09/14 03:13:10;;;;;;;4.30;3.60;;;;;;;11.21;95.21;98621.11;109303;1277;22541;-59
2022/09/14 03:15:37;;;;;;;3.90;3.50;;;;;;;11.20;95.25;98622.92;109194;1277;23401;-59
2022/09/14 03:18:05;;;;;;;3.90;3.50;;;;;;;11.19;95.31;98620.20;109147;1277;139398;-59
2022/09/14 03:20:34;;;;;;;4.80;3.50;;;;;;;11.18;95.16;98619.27;109295;1275;23276;-59
2022/09/14 03:23:02;;;;;;;4.80;3.80;;;;;;;11.17;95.00;98622.48;109129;1277;138574;-59
2022/09/14 03:25:29;;;;;;;6.20;3.70;;;;;;;11.17;95.14;98618.19;109272;1276;22636;-59
2022/09/14 03:27:57;;;;;;;4.20;3.70;;;;;;;11.18;95.08;98620.14;109145;1276;139497;-59
2022/09/14 03:30:25;;;;;;;6.30;3.80;;;;;;;11.17;94.97;98617.64;109238;1277;22434;-58
2022/09/14 03:32:51;;;;;;;5.90;3.60;;;;;;;11.17;95.04;98614.48;106033;1277;22923;-57
2022/09/14 03:35:18;;;;;;;;;;;;;;;11.17;94.98;98612.30;104888;1277;138188;-58
2022/09/14 03:37:45;;;;;;;8.30;4.80;;;;;;;11.16;94.92;98610.61;104978;1277;25587;-59
2022/09/14 03:40:13;;;;;;;6.10;4.60;;;;;;;11.14;94.83;98607.52;104934;1277;139457;-58
2022/09/14 03:42:47;;;;;;;6.20;4.80;;;;;;;11.13;94.70;98618.10;109233;1275;23588;-59
2022/09/14 03:45:14;;;;;;;11.50;6.00;;;;;;;11.12;94.76;98624.86;109240;1276;22550;-59
2022/09/14 03:47:41;;;;;;;10.60;6.30;;;;;;;11.10;94.55;98627.52;109161;1276;140663;-58
2022/09/14 03:50:09;;;;;;;5.60;4.00;;;;;;;11.10;94.23;98626.59;109289;1277;23332;-58
2022/09/14 03:52:36;;;;;;;5.00;3.40;;;;;;;11.09;94.36;98627.15;109134;1277;139857;-58
2022/09/14 03:55:04;;;;;;;4.20;3.80;;;;;;;11.09;94.15;98626.44;109253;1276;22507;-59
2022/09/14 03:57:31;;;;;;;9.20;5.80;;;;;;;11.09;93.85;98628.08;109295;1275;22460;-59
2022/09/14 03:59:58;;;;;;;7.20;4.70;;;;;;;11.10;93.99;98629.27;109108;1276;139290;-59
2022/09/14 04:02:25;;;;;;;8.50;5.30;;;;;;;11.10;93.79;98629.98;109260;1277;22453;-59
2022/09/14 04:04:52;;;;;;;4.50;3.50;;;;;;;11.10;93.64;98626.10;108955;1277;138278;-58
2022/09/14 04:07:19;;;;;;;5.40;4.20;;;;;;;11.11;93.75;98625.00;109218;1277;22482;-59
2022/09/14 04:09:45;;;;;;;;;;;;;;;11.11;93.26;98624.82;109281;1277;22481;-59
2022/09/14 04:12:12;;;;;;;4.50;3.30;;;;;;;11.07;93.06;98633.43;109204;1277;125198;-59
2022/09/14 04:14:39;;;;;;;7.20;3.20;;;;;;;11.06;92.97;98635.66;109251;1275;22529;-59
2022/09/14 04:17:06;;;;;;;5.50;3.90;;;;;;;11.05;93.02;98640.36;109158;1276;138272;-59
2022/09/14 04:19:33;;;;;;;4.70;3.20;;;;;;;11.02;92.98;98643.04;109175;1277;22496;-59
2022/09/14 04:22:00;;;;;;;5.90;3.50;;;;;;;11.01;92.93;98649.86;109129;1276;138959;-58
2022/09/14 04:24:26;;;;;;;;;;;;;;;11.01;92.91;98651.98;109305;1277;22470;-59
2022/09/14 04:26:56;;;;;;;9.30;5.10;;;;;;;11.03;92.94;98650.78;109290;1276;22255;-59
2022/09/14 04:29:23;;;;;;;;;;;;;;;11.03;92.85;98653.13;109045;1277;139140;-58
2022/09/14 04:31:49;;;;;;;12.40;6.30;;;;;;;11.05;93.00;98653.94;109183;1277;23176;-59
2022/09/14 04:34:16;;;;;;;;;;;;;;;11.06;92.97;98655.45;109123;1277;139540;-59
2022/09/14 04:36:43;;;;;;;13.80;6.80;;;;;;;11.07;92.92;98654.69;109158;1277;22482;-60
2022/09/14 04:39:10;;;;;;;12.10;6.10;;;;;;;11.08;92.96;98649.17;109218;1277;22494;-63
2022/09/14 04:41:37;;;;;;;6.90;4.60;;;;;;;11.11;92.86;98647.25;108956;1277;139257;-63
2022/09/14 04:44:04;;;;;;;6.70;4.80;;;;;;;11.14;92.80;98648.80;109164;1277;23220;-64
2022/09/14 04:46:33;;;;;;;5.80;3.60;;;;;;;11.18;93.00;98647.73;109045;1277;138393;-63
2022/09/14 04:49:00;;;;;;;7.40;3.20;;;;;;;11.21;93.11;98641.99;109215;1276;22415;-63
2022/09/14 04:51:28;;;;;;;;;;;;;;;11.25;93.01;98635.95;109212;1277;22678;-62
2022/09/14 04:53:55;;;;;;;5.20;3.30;;;;;;;11.29;92.87;98635.65;109104;1277;126181;-63
2022/09/14 04:56:22;;;;;;;3.60;3.20;;;;;;;11.31;92.71;98637.55;109151;1276;24192;-63
2022/09/14 04:58:51;;;;;;;3.00;2.80;;;;;;;11.33;92.49;98638.90;109059;1276;138827;-63
2022/09/14 05:01:20;;;;;;;4.80;2.90;;;;;;;11.32;91.94;98642.40;109133;1277;22473;-63
2022/09/14 05:03:47;;;;;;;5.50;3.30;;;;;;;11.33;92.03;98648.45;108161;1277;23233;-62
2022/09/14 05:06:15;;;;;;;5.00;3.40;;;;;;;11.35;91.79;98651.49;108878;1276;139339;-62
2022/09/14 05:08:42;;;;;;;3.60;3.20;;;;;;;11.36;91.78;98650.78;109169;1277;22464;-63
2022/09/14 05:11:12;;;;;;;4.70;3.50;;;;;;;11.37;91.66;98646.19;109098;1277;139172;-64
2022/09/14 05:13:38;;;;;;;5.40;3.60;;;;;;;11.38;91.68;98646.47;109306;1277;22685;-65
2022/09/14 05:16:07;;;;;;;6.10;3.80;;;;;;;11.39;91.48;98648.09;109033;1277;139297;-64
2022/09/14 05:18:34;;;;;;;6.60;3.80;;;;;;;11.40;91.57;98653.19;109154;1277;22501;-64
2022/09/14 05:21:05;;;;;;;3.50;3.20;;;;;;;11.42;91.67;98654.59;109163;1276;23285;-64
2022/09/14 05:23:34;;;;;;;8.00;3.90;;;;;;;11.43;91.64;98659.87;109026;1277;139690;-62
2022/09/14 05:26:01;;;;;;;5.60;3.30;;;;;;;11.45;91.75;98662.38;109119;1277;23271;-64
2022/09/14 05:28:28;;;;;;;4.40;3.80;;;;;;;11.46;91.56;98661.55;109114;1276;139009;-64
2022/09/14 05:30:54;;;;;;;5.70;3.80;;;;;;;11.49;91.48;98658.70;109247;1275;23302;-64
2022/09/14 05:33:21;;;;;;;9.90;3.60;;;;;;;11.51;91.42;98657.27;109213;1276;22433;-64
2022/09/14 05:35:49;;;;;;;5.50;3.20;;;;;;;11.53;91.22;98657.61;109163;1276;138106;-64
2022/09/14 05:38:15;;;;;;;4.20;3.80;;;;;;;11.57;91.17;98655.89;109234;1276;22340;-64
2022/09/14 05:40:42;;;;;;;4.30;3.50;;;;;;;11.61;91.06;98655.75;109106;1277;138131;-64
2022/09/14 05:43:09;;;;;;;5.20;4.70;;;;;;;11.64;90.78;98656.98;109295;1276;22403;-64
2022/09/14 05:45:36;;;;;;;;;;;;;;;11.66;90.72;98657.02;109222;1277;22549;-64
2022/09/14 05:48:06;;;;;;;7.70;3.50;;;;;;;11.67;90.31;98661.28;109136;1277;125175;-64
2022/09/14 05:50:32;;;;;;;6.20;3.50;;;;;;;11.66;90.02;98659.16;109151;1277;23400;-64
2022/09/14 05:52:59;;;;;;;3.70;3.40;;;;;;;11.66;89.85;98662.05;109136;1277;138285;-63
2022/09/14 05:55:26;;;;;;;4.00;3.60;;;;;;;11.67;89.35;98656.80;109164;1277;22463;-63
2022/09/14 05:57:53;;;;;;;4.50;3.50;;;;;;;11.70;89.27;98656.27;109197;1277;22466;-63
2022/09/14 06:00:20;;;;;;;4.70;3.80;;;;;;;11.73;89.32;98651.61;109264;1276;22439;-61
2022/09/14 06:02:51;;;;;;;4.10;3.70;;;;;;;11.74;89.51;98649.69;109113;1277;22601;-64
2022/09/14 06:05:18;;;;;;;6.60;3.70;;;;;;;11.78;89.40;98649.41;109173;1276;138990;-64
2022/09/14 06:07:48;;;;;;;6.20;3.80;;;;;;;11.83;89.51;98647.63;109231;1277;22485;-63
2022/09/14 06:10:15;;;;;;;4.70;3.60;;;;;;;11.87;89.40;98647.84;109028;1277;139201;-63
2022/09/14 06:12:42;;;;;;;5.30;4.40;;;;;;;11.91;89.32;98645.69;109228;1276;23874;-64
2022/09/14 06:15:09;;;;;;;6.80;4.30;;;;;;;11.95;89.35;98640.80;109079;1276;22594;-63
2022/09/14 06:17:36;;;;;;;4.60;4.00;;;;;;;11.99;89.06;98638.71;109106;1276;138067;-64
2022/09/14 06:20:04;;;;;;;4.10;3.70;;;;;;;12.02;89.08;98642.08;109217;1277;22471;-64
2022/09/14 06:22:31;;;;;;;5.50;4.10;;;;;;;12.07;88.94;98643.23;109093;1277;139783;-63
2022/09/14 06:24:58;;;;;;;5.30;4.50;;;;;;;12.11;88.82;98641.77;109255;1276;22459;-64
2022/09/14 06:27:26;;;;;;;7.20;4.20;;;;;;;12.14;88.39;98641.35;109260;1276;22509;-64
2022/09/14 06:29:53;;;;;;;6.10;3.80;;;;;;;12.16;88.34;98641.05;109082;1277;138330;-64
2022/09/14 06:32:22;;;;;;;6.70;4.70;;;;;;;12.19;88.28;98639.23;109243;1277;22493;-64
2022/09/14 06:34:48;;;;;;;11.00;4.40;;;;;;;12.24;88.41;98642.12;109164;1277;138502;-64
2022/09/14 06:37:15;;;;;;;4.70;3.80;;;;;;;12.30;88.15;98640.84;109241;1276;22483;-64
2022/09/14 06:39:42;;;;;;;8.60;5.00;;;;;;;12.34;88.29;98640.59;109225;1277;22438;-64
2022/09/14 06:42:09;;;;;;;6.10;4.30;;;;;;;12.39;88.02;98637.80;109138;1277;139284;-64
2022/09/14 06:44:37;;;;;;;4.90;3.80;;;;;;;12.43;87.62;98633.75;109098;1277;22429;-64
2022/09/14 06:47:04;;;;;;;4.90;4.30;;;;;;;12.47;87.25;98637.59;109043;1277;138193;-64
2022/09/14 06:49:31;;;;;;;3.90;3.50;;;;;;;12.50;87.01;98636.30;109241;1275;22498;-64
2022/09/14 06:51:59;;;;;;;4.20;3.40;;;;;;;12.53;86.51;98629.92;109153;1277;140177;-64
2022/09/14 06:54:26;;;;;;;6.70;3.90;;;;;;;12.57;86.58;98631.50;109242;1277;22452;-64
2022/09/14 06:56:53;;;;;;;3.70;3.40;;;;;;;12.60;86.20;98623.70;109235;1277;22467;-64
2022/09/14 06:59:20;;;;;;;4.40;3.40;;;;;;;12.65;85.76;98628.40;109101;1277;139580;-64
2022/09/14 07:01:49;;;;;;;5.30;3.30;;;;;;;12.70;85.50;98626.04;109242;1277;22583;-64
2022/09/14 07:04:16;;;;;;;4.90;3.70;;;;;;;12.76;85.25;98626.34;109190;1277;138616;-64
2022/09/14 07:06:45;;;;;;;6.20;3.20;;;;;;;12.80;84.84;98623.02;109235;1276;22539;-64
2022/09/14 07:09:12;;;;;;;5.60;3.90;;;;;;;12.85;84.75;98620.03;109206;1277;23197;-64
2022/09/14 07:11:39;;;;;;;7.30;3.70;;;;;;;12.91;84.28;98621.76;109147;1277;138114;-63
2022/09/14 07:14:06;;;;;;;5.20;3.20;;;;;;;12.96;84.00;98621.24;109267;1276;22452;-63
2022/09/14 07:16:33;;;;;;;3.70;3.30;;;;;;;13.04;84.08;98619.21;109092;1277;138691;-63
2022/09/14 07:19:01;;;;;;;2.90;2.30;;;;;;;13.14;83.77;98617.45;109087;1276;23971;-64
2022/09/14 07:21:28;;;;;;;3.00;2.70;;;;;;;13.23;82.77;98616.95;109332;1276;23227;-64
2022/09/14 07:23:55;;;;;;;5.80;3.20;;;;;;;13.31;82.38;98613.85;109032;1277;138938;-64
2022/09/14 07:26:24;;;;;;;3.60;2.60;;;;;;;13.40;81.94;98612.23;109268;1276;22471;-64
2022/09/14 07:29:02;;;;;;;3.60;3.20;;;;;;;13.47;81.41;98611.78;109143;1277;138780;-64
2022/09/14 07:31:31;;;;;;;3.50;3.20;;;;;;;13.52;81.33;98606.02;109235;1276;22571;-65
2022/09/14 07:34:03;;;;;;;6.10;3.00;;;;;;;13.59;81.20;98606.70;109052;1277;138304;-64
2022/09/14 07:36:31;;;;;;;3.90;3.00;;;;;;;13.66;81.15;98608.09;109278;1276;22941;-64
2022/09/14 07:39:01;;;;;;;3.20;2.40;;;;;;;13.74;81.07;98602.50;109230;1276;22472;-64
2022/09/14 07:41:29;;;;;;;3.10;2.50;;;;;;;13.83;80.78;98605.31;109059;1276;138401;-64
2022/09/14 07:43:59;;;;;;;3.80;2.80;;;;;;;13.92;80.03;98602.95;109041;1277;23471;-64
2022/09/14 07:46:27;;;;;;;3.10;2.40;;;;;;;14.00;79.44;98604.93;109156;1276;138877;-64
2022/09/14 07:48:58;;;;;;;4.90;2.30;;;;;;;14.06;78.98;98607.72;109255;1276;23582;-64
2022/09/14 07:51:25;;;;;;;3.30;2.10;;;;;;;14.14;78.69;98609.39;109362;1276;22483;-64
2022/09/14 07:53:51;;;;;;;2.90;2.20;;;;;;;14.21;78.38;98604.64;109181;1277;138049;-64
2022/09/14 07:56:19;;;;;;;2.80;2.30;;;;;;;14.30;77.86;98597.46;109186;1277;22426;-66
2022/09/14 07:58:46;;;;;;;7.80;2.90;;;;;;;14.39;77.27;98594.55;109108;1275;138461;-65
2022/09/14 08:01:20;;;;;;;2.60;1.90;;;;;;;14.49;76.53;98591.39;109228;1277;22429;-65
2022/09/14 08:03:47;;;;;;;2.20;2.00;;;;;;;14.58;76.02;98589.48;109314;1277;22465;-65
2022/09/14 08:06:17;;;;;;;3.80;1.70;;;;;;;14.68;75.34;98582.21;109135;1276;139365;-65
2022/09/14 08:08:46;;;;;;;4.20;1.90;;;;;;;14.77;74.80;98583.64;109327;1277;22423;-65
2022/09/14 08:11:16;;;;;;;2.70;1.80;;;;;;;14.86;73.89;98583.48;109180;1277;139384;-65
2022/09/14 08:13:49;;;;;;;1.50;1.40;;;;;;;14.93;72.99;98586.85;109289;1276;22464;-65
2022/09/14 08:16:17;;;;;;;2.90;1.70;;;;;;;15.00;72.87;98583.90;109150;1277;139286;-65
2022/09/14 08:18:44;;;;;;;2.70;2.00;;;;;;;15.09;72.93;98584.02;109230;1277;22542;-64
2022/09/14 08:21:13;;;;;;;2.10;1.90;;;;;;;15.18;72.81;98575.22;107775;1276;1876592;-64
2022/09/14 08:25:05;;;;;;;1.90;1.80;;;;;;;15.33;70.70;98572.52;101913;1309;546420;-64
2022/09/14 08:27:31;;;;;;;2.50;2.10;;;;;;;15.37;69.70;98570.99;104047;1286;24341;-64
2022/09/14 08:29:58;;;;;;;2.50;1.90;;;;;;;15.40;68.78;98563.67;104486;1277;137730;-64
2022/09/14 08:32:25;;;;;;;1.80;1.70;;;;;;;15.41;68.47;98555.63;104599;1279;25180;-62
2022/09/14 08:34:52;;;;;;;2.70;2.10;;;;;;;15.42;68.39;98554.41;108894;1277;137141;-63
2022/09/14 08:37:18;;;;;;;1.90;1.80;;;;;;;15.43;68.01;98561.69;109013;1279;23102;-63
2022/09/14 08:39:45;;;;;;;3.20;2.10;;;;;;;15.43;68.00;98560.91;108097;1276;1441739;-63
2022/09/14 08:42:18;;;;;;;2.20;2.00;;;;;;;15.44;68.34;98565.25;109329;1277;22453;-64
2022/09/14 08:44:53;;;;;;;2.20;2.00;;;;;;;15.43;68.57;98560.69;109081;1276;137180;-63
2022/09/14 08:47:37;;;;;;;2.50;1.90;;;;;;;15.44;68.84;98557.24;109338;1276;22452;-63
2022/09/14 08:50:18;;;;;;;2.60;1.70;;;;;;;15.44;68.73;98557.89;109310;1274;22457;-63
2022/09/14 08:52:51;;;;;;;2.70;1.90;;;;;;;15.44;68.27;98558.38;109163;1274;138930;-64
2022/09/14 08:55:40;;;;;;;3.00;2.00;;;;;;;15.44;67.39;98562.19;109323;1274;23211;-63
2022/09/14 08:58:15;;;;;;;2.40;1.80;;;;;;;15.41;66.48;98557.61;109236;1274;137339;-63
2022/09/14 09:00:51;;;;;;;2.80;1.90;;;;;;;15.39;66.22;98555.26;109255;1274;22462;-63
2022/09/14 09:03:37;;;;;;;3.50;1.80;;;;;;;15.37;66.16;98551.49;109172;1274;137278;-64
2022/09/14 09:06:14;;;;;;;4.60;1.80;;;;;;;15.35;66.06;98542.02;109330;1274;22496;-64
2022/09/14 09:08:54;;;;;;;1.80;1.60;;;;;;;15.32;66.40;98540.21;109178;1274;138188;-63
2022/09/14 09:11:21;;;;;;;3.70;1.90;;;;;;;15.30;67.25;98542.33;109195;1275;22463;-63
2022/09/14 09:13:49;;;;;;;2.50;1.90;;;;;;;15.27;67.84;98541.98;109078;1277;22421;-64
2022/09/14 09:16:17;;;;;;;3.10;2.10;;;;;;;15.24;68.10;98544.05;108945;1276;137428;-63
2022/09/14 09:18:46;;;;;;;2.10;1.70;;;;;;;15.19;68.52;98544.36;109233;1276;22434;-63
2022/09/14 09:21:22;;;;;;;2.60;2.00;;;;;;;15.15;68.63;98547.27;108998;1277;137942;-64
2022/09/14 09:23:49;;;;;;;2.30;1.90;;;;;;;15.11;68.97;98545.84;109236;1274;22578;-63
2022/09/14 09:26:26;;;;;;;3.90;2.00;;;;;;;15.08;68.58;98549.58;109292;1274;22455;-63
2022/09/14 09:28:58;;;;;;;4.90;2.50;;;;;;;15.05;68.38;98554.31;109288;1275;22421;-63
2022/09/14 09:31:33;;;;;;;2.60;1.80;;;;;;;15.01;68.45;98561.33;109076;1277;22469;-63
2022/09/14 09:34:26;;;;;;;2.50;2.20;;;;;;;14.97;68.39;98562.57;108886;1276;138434;-64
2022/09/14 09:37:05;;;;;;;2.90;2.20;;;;;;;14.93;68.35;98564.53;108959;1276;23115;-63
2022/09/14 09:39:32;;;;;;;2.70;2.10;;;;;;;14.89;68.56;98568.29;109122;1276;140217;-63
2022/09/14 09:42:22;;;;;;;4.20;2.30;;;;;;;14.84;68.70;98565.02;108780;1276;22460;-63
2022/09/14 09:45:00;;;;;;;5.50;2.50;;;;;;;14.79;68.65;98562.98;108802;1277;137309;-63
2022/09/14 09:47:32;;;;;;;4.00;2.20;;;;;;;14.73;68.74;98565.40;109177;1276;22435;-63
2022/09/14 09:50:00;;;;;;;3.00;2.20;;;;;;;14.68;68.74;98561.31;109144;1276;22427;-63
2022/09/14 09:52:28;;;;;;;3.10;2.50;;;;;;;14.65;68.91;98559.75;109069;1276;138894;-64
2022/09/14 09:54:54;;;;;;;3.00;2.50;;;;;;;14.61;69.33;98557.45;109180;1276;22443;-64
2022/09/14 09:57:28;;;;;;;4.80;3.30;;;;;;;14.59;69.80;98557.48;108996;1276;137409;-64
2022/09/14 10:00:07;;;;;;;4.60;2.60;;;;;;;14.56;70.17;98553.20;109169;1276;22452;-64
2022/09/14 10:02:37;;;;;;;2.90;2.60;;;;;;;14.52;70.24;98550.77;109106;1276;139301;-65
2022/09/14 10:05:07;;;;;;;5.90;2.60;;;;;;;14.52;70.42;98551.70;108982;1277;22483;-64
2022/09/14 10:07:58;;;;;;;4.30;2.80;;;;;;;14.52;70.61;98553.02;109341;1276;22581;-65
2022/09/14 10:10:38;;;;;;;4.40;2.80;;;;;;;14.50;70.93;98550.68;109140;1275;138491;-65
2022/09/14 10:13:09;;;;;;;4.90;2.90;;;;;;;14.51;71.18;98555.02;109089;1276;22469;-64
2022/09/14 10:15:36;;;;;;;3.70;2.70;;;;;;;14.51;71.39;98555.00;109117;1277;138568;-64
2022/09/14 10:18:08;;;;;;;6.50;4.30;;;;;;;14.51;71.72;98555.11;109266;1275;22498;-64
2022/09/14 10:20:39;;;;;;;5.50;3.60;;;;;;;14.51;71.99;98550.34;109217;1276;137993;-65
2022/09/14 10:23:23;;;;;;;4.80;3.30;;;;;;;14.53;72.04;98554.80;109309;1277;22604;-64
2022/09/14 10:26:12;;;;;;;4.40;3.20;;;;;;;14.54;71.92;98546.40;109285;1277;22414;-64
2022/09/14 10:28:41;;;;;;;4.20;3.60;;;;;;;14.56;72.00;98547.29;109159;1276;139963;-65
2022/09/14 10:31:17;;;;;;;10.00;4.40;;;;;;;14.57;72.08;98550.09;109164;1276;23428;-64
2022/09/14 10:33:57;;;;;;;7.30;3.30;;;;;;;14.59;72.28;98546.43;109194;1274;139587;-63
2022/09/14 10:36:37;;;;;;;5.50;3.10;;;;;;;14.61;72.60;98547.48;109312;1275;22527;-63
2022/09/14 10:39:22;;;;;;;3.90;3.50;;;;;;;14.63;72.63;98546.24;109000;1276;138076;-63
2022/09/14 10:42:06;;;;;;;3.30;2.60;;;;;;;14.65;72.65;98541.42;109096;1275;22476;-64
2022/09/14 10:44:44;;;;;;;5.50;2.90;;;;;;;14.67;72.65;98544.06;109155;1276;138752;-64
2022/09/14 10:47:36;;;;;;;4.20;3.30;;;;;;;14.70;72.58;98546.42;109204;1276;23067;-65
2022/09/14 10:50:18;;;;;;;3.30;3.00;;;;;;;14.72;72.52;98543.71;109149;1277;22455;-65
2022/09/14 10:52:48;;;;;;;4.80;4.00;;;;;;;14.75;72.55;98542.11;109123;1274;138403;-64
2022/09/14 10:55:42;;;;;;;4.10;3.70;;;;;;;14.78;72.53;98536.84;109014;1277;23489;-64
2022/09/14 10:58:28;;;;;;;4.20;3.80;;;;;;;14.82;72.91;98537.64;108981;1276;138906;-65
2022/09/14 11:01:32;;;;;;;6.70;3.60;;;;;;;14.86;73.55;98530.78;109243;1276;22455;-64
2022/09/14 11:04:36;;;;;;;5.70;3.90;;;;;;;14.92;74.06;98528.50;109117;1275;139480;-65
2022/09/14 11:07:08;;;;;;;4.40;3.70;;;;;;;14.97;74.10;98530.39;109242;1275;22696;-64
2022/09/14 11:10:03;;;;;;;13.70;4.30;;;;;;;15.00;74.30;98528.43;108877;1278;137771;-64
2022/09/14 11:12:51;;;;;;;4.90;4.00;;;;;;;15.03;75.20;98527.80;109301;1274;22502;-64
2022/09/14 11:15:18;;;;;;;5.80;4.50;;;;;;;15.06;75.66;98526.02;109209;1276;138595;-64
2022/09/14 11:18:07;;;;;;;6.40;4.40;;;;;;;15.09;76.06;98521.48;109209;1277;22576;-64
2022/09/14 11:20:57;;;;;;;5.60;4.60;;;;;;;15.11;76.51;98519.34;109095;1276;138707;-64
2022/09/14 11:23:44;;;;;;;5.10;4.60;;;;;;;15.13;76.82;98514.13;109182;1276;22627;-64
2022/09/14 11:26:30;;;;;;;7.00;5.00;;;;;;;15.15;77.01;98513.83;109178;1274;22483;-64
2022/09/14 11:29:02;;;;;;;7.80;4.80;;;;;;;15.17;77.34;98513.18;109288;1275;23272;-64
2022/09/14 11:31:36;;;;;;;6.20;4.80;;;;;;;15.18;77.73;98510.91;109219;1276;22502;-64
2022/09/14 11:34:14;;;;;;;9.10;5.00;;;;;;;15.19;78.25;98509.17;109095;1277;139705;-64
2022/09/14 11:36:49;;;;;;;6.30;5.40;;;;;;;15.20;78.64;98509.38;109361;1275;22509;-65
2022/09/14 11:39:15;;;;;;;5.80;5.10;;;;;;;15.20;78.93;98506.91;109238;1275;138106;-64
2022/09/14 11:41:51;;;;;;;5.90;4.90;;;;;;;15.20;79.45;98512.28;109236;1276;22468;-65
2022/09/14 11:44:18;;;;;;;6.30;5.50;;;;;;;15.21;80.11;98506.98;109186;1276;22469;-64
2022/09/14 11:46:48;;;;;;;6.60;5.80;;;;;;;15.21;80.52;98506.83;109151;1277;137934;-64
2022/09/14 11:49:26;;;;;;;8.40;5.40;;;;;;;15.20;80.75;98508.92;109006;1278;23747;-64